This is the latest recevied weather packets stored in our database for station/object YD2APR-13. If no packets are shown the sender has not sent any weather packets the latest 10 day(s).
| Time | Temp. | Humidity | Pressure | Rain* | Wind** | Luminosity | Snow |
|---|---|---|---|---|---|---|---|
| 1777862896 | 30° C | 67% | 1017.3 hPa | - | - | - | - |
| 1777862296 | 30° C | 65% | 1017.3 hPa | - | - | - | - |
| 1777861699 | 29.44° C | 66% | 1017.2 hPa | - | - | - | - |
| 1777861098 | 30° C | 66% | 1017.1 hPa | - | - | - | - |
| 1777860496 | 30.56° C | 64% | 1017.1 hPa | - | - | - | - |
| 1777859896 | 30° C | 64% | 1017.1 hPa | - | - | - | - |
| 1777859296 | 30.56° C | 62% | 1017.1 hPa | - | - | - | - |
| 1777858696 | 30° C | 64% | 1016.9 hPa | - | - | - | - |
| 1777858096 | 29.44° C | 65% | 1016.9 hPa | - | - | - | - |
| 1777857496 | 28.89° C | 67% | 1016.8 hPa | - | - | - | - |
| 1777856896 | 27.78° C | 71% | 1016.8 hPa | - | - | - | - |
| 1777856296 | 27.22° C | 74% | 1016.7 hPa | - | - | - | - |
| 1777855696 | 26.67° C | 77% | 1016.8 hPa | - | - | - | - |
| 1777855096 | 26.67° C | 77% | 1016.6 hPa | - | - | - | - |
| 1777854496 | 25.56° C | 80% | 1016.4 hPa | - | - | - | - |
| 1777853896 | 25.56° C | 80% | 1016.4 hPa | - | - | - | - |
| 1777853301 | 25.56° C | 82% | 1016.4 hPa | - | - | - | - |
| 1777852862 | 24.44° C | 83% | 1016.1 hPa | - | - | - | - |
| 1777852262 | 24.44° C | 83% | 1016.1 hPa | - | - | - | - |
| 1777851661 | 23.89° C | 85% | 1016 hPa | - | - | - | - |
| 1777851062 | 23.33° C | 87% | 1015.9 hPa | - | - | - | - |
| 1777850462 | 23.33° C | 87% | 1015.9 hPa | - | - | - | - |
| 1777849862 | 23.33° C | 89% | 1015.9 hPa | - | - | - | - |
| 1777849262 | 22.78° C | 89% | 1015.9 hPa | - | - | - | - |
| 1777848661 | 23.33° C | 88% | 1015.8 hPa | - | - | - | - |
* Rain since midnight (hover to see other rain measurements)
** Current wind speed in m/s (hover to see current wind gust speed)